createdAt,value
2023-03-06T00:02:39.132Z,-2.54
2023-03-06T00:05:26.269Z,-2.56
2023-03-06T00:08:13.350Z,-2.60
2023-03-06T00:11:00.964Z,-2.65
2023-03-06T00:13:48.446Z,-2.65
2023-03-06T00:16:35.480Z,-2.79
2023-03-06T00:19:22.366Z,-2.71
2023-03-06T00:22:09.737Z,-2.73
2023-03-06T00:24:56.818Z,-2.77
2023-03-06T00:27:43.737Z,-2.79
2023-03-06T00:30:34.082Z,-2.81
2023-03-06T00:33:21.561Z,-3.00
2023-03-06T00:36:09.130Z,-2.96
2023-03-06T00:38:56.084Z,-2.89
2023-03-06T00:41:46.977Z,-2.87
2023-03-06T00:44:34.115Z,-2.90
2023-03-06T00:47:22.208Z,-2.92
2023-03-06T00:50:09.933Z,-2.93
2023-03-06T00:52:57.035Z,-2.94
2023-03-06T00:55:44.934Z,-2.96
2023-03-06T00:58:32.190Z,-2.97
2023-03-06T01:01:19.182Z,-2.98
2023-03-06T01:04:06.347Z,-3.01
2023-03-06T01:06:53.566Z,-3.36
2023-03-06T01:09:40.996Z,-3.37
2023-03-06T01:12:28.297Z,-3.09
2023-03-06T01:15:15.375Z,-3.07
2023-03-06T01:18:02.427Z,-3.02
2023-03-06T01:20:49.760Z,-3.44
2023-03-06T01:23:36.783Z,-3.57
2023-03-06T01:26:24.241Z,-3.05
2023-03-06T01:29:11.267Z,-3.05
2023-03-06T01:31:58.685Z,-3.05
2023-03-06T01:34:45.913Z,-3.06
2023-03-06T01:37:33.103Z,-3.06
2023-03-06T01:40:19.888Z,-3.11
2023-03-06T01:43:09.516Z,-3.07
2023-03-06T01:45:56.328Z,-3.08
2023-03-06T01:48:44.721Z,-3.08
2023-03-06T01:51:32.178Z,-3.11
2023-03-06T01:54:22.323Z,-3.09
2023-03-06T01:57:12.735Z,-3.38
2023-03-06T02:00:02.708Z,-3.11
2023-03-06T02:03:02.226Z,-3.12
2023-03-06T02:05:49.301Z,-3.42
2023-03-06T02:08:39.608Z,-3.15
2023-03-06T02:11:33.955Z,-3.16
2023-03-06T02:14:40.955Z,-3.19
2023-03-06T02:17:30.945Z,-3.18
2023-03-06T02:20:46.014Z,-3.19
2023-03-06T02:24:13.101Z,-3.21
2023-03-06T02:27:02.330Z,-3.22
2023-03-06T02:29:50.808Z,-3.26
2023-03-06T02:32:37.853Z,-3.28
2023-03-06T02:35:25.115Z,-3.31
2023-03-06T02:38:12.956Z,-3.56
2023-03-06T02:41:03.523Z,-3.50
2023-03-06T02:43:54.242Z,-3.35
2023-03-06T02:46:41.341Z,-3.36
2023-03-06T02:49:28.282Z,-3.38
2023-03-06T02:52:15.270Z,-3.54
2023-03-06T02:55:02.343Z,-3.41
2023-03-06T02:57:49.215Z,-3.43
2023-03-06T03:00:37.407Z,-3.46
2023-03-06T03:03:26.947Z,-3.48
2023-03-06T03:06:13.962Z,-3.51
2023-03-06T03:09:00.954Z,-3.60
2023-03-06T03:11:48.926Z,-3.65
2023-03-06T03:14:36.252Z,-3.61
2023-03-06T03:17:24.083Z,-3.66
2023-03-06T03:20:11.822Z,-3.82
2023-03-06T03:22:59.100Z,-3.73
2023-03-06T03:25:46.849Z,-3.76
2023-03-06T03:28:34.059Z,-3.86
2023-03-06T03:31:25.399Z,-3.84
2023-03-06T03:34:12.546Z,-4.06
2023-03-06T03:37:02.699Z,-3.93
2023-03-06T03:39:49.827Z,-3.93
2023-03-06T03:42:37.069Z,-4.01
2023-03-06T03:45:25.754Z,-4.02
2023-03-06T03:48:12.858Z,-4.05
2023-03-06T03:50:59.913Z,-4.10
2023-03-06T03:53:47.099Z,-4.23
2023-03-06T03:56:38.529Z,-4.16
2023-03-06T03:59:31.024Z,-4.20
2023-03-06T04:02:30.974Z,-4.24
2023-03-06T04:05:26.719Z,-4.28
2023-03-06T04:08:13.751Z,-4.38
2023-03-06T04:11:03.506Z,-4.35
2023-03-06T04:13:52.212Z,-4.39
2023-03-06T04:16:39.256Z,-4.44
2023-03-06T04:19:27.040Z,-4.65
2023-03-06T04:22:13.929Z,-4.52
2023-03-06T04:25:00.968Z,-4.50
2023-03-06T04:27:47.954Z,-4.52
2023-03-06T04:30:35.097Z,-4.56
2023-03-06T04:33:22.709Z,-4.58
2023-03-06T04:36:09.916Z,-4.78
2023-03-06T04:38:56.940Z,-4.63
2023-03-06T04:41:44.449Z,-4.66
2023-03-06T04:44:31.535Z,-4.68
2023-03-06T04:47:19.337Z,-4.71
2023-03-06T04:50:06.704Z,-4.79
2023-03-06T04:52:53.886Z,-4.87
2023-03-06T04:55:40.997Z,-4.78
2023-03-06T04:58:28.171Z,-4.88
2023-03-06T05:01:15.578Z,-4.83
2023-03-06T05:04:02.606Z,-4.86
2023-03-06T05:06:49.436Z,-4.88
2023-03-06T05:09:38.299Z,-4.90
2023-03-06T05:12:26.689Z,-4.96
2023-03-06T05:15:13.710Z,-5.09
2023-03-06T05:18:00.745Z,-5.00
2023-03-06T05:20:47.603Z,-5.05
2023-03-06T05:23:34.720Z,-5.06
2023-03-06T05:26:24.866Z,-5.07
2023-03-06T05:29:11.821Z,-5.14
2023-03-06T05:31:58.817Z,-5.27
2023-03-06T05:34:45.698Z,-5.18
2023-03-06T05:37:32.712Z,-5.32
2023-03-06T05:40:20.383Z,-5.21
2023-03-06T05:43:07.403Z,-5.22
2023-03-06T05:45:55.657Z,-5.41
2023-03-06T05:48:42.918Z,-5.25
2023-03-06T05:51:30.905Z,-5.26
2023-03-06T05:54:18.005Z,-5.33
2023-03-06T05:57:04.954Z,-5.30
2023-03-06T05:59:52.677Z,-5.39
2023-03-06T06:02:39.856Z,-5.35
2023-03-06T06:05:27.568Z,-5.32
2023-03-06T06:08:14.581Z,-5.35
2023-03-06T06:11:01.592Z,-5.36
2023-03-06T06:13:48.469Z,-5.49
2023-03-06T06:16:36.645Z,-5.37
2023-03-06T06:19:23.683Z,-5.37
2023-03-06T06:22:14.110Z,-5.38
2023-03-06T06:25:01.137Z,-5.40
2023-03-06T06:27:48.086Z,-5.37
2023-03-06T06:30:35.110Z,-5.37
2023-03-06T06:33:22.009Z,-5.37
2023-03-06T06:36:09.143Z,-5.38
2023-03-06T06:38:56.132Z,-5.38
2023-03-06T06:41:59.423Z,-5.36
2023-03-06T06:44:50.664Z,-5.35
2023-03-06T06:47:37.635Z,-5.35
2023-03-06T06:50:24.894Z,-5.34
2023-03-06T06:53:11.814Z,-5.33
2023-03-06T06:55:58.781Z,-5.34
2023-03-06T06:58:46.506Z,-5.31
2023-03-06T07:01:34.147Z,-5.29
2023-03-06T07:04:21.140Z,-5.27
2023-03-06T07:07:08.399Z,-5.26
2023-03-06T07:09:55.394Z,-5.26
2023-03-06T07:12:42.362Z,-5.41
2023-03-06T07:15:32.172Z,-5.20
2023-03-06T07:18:19.077Z,-5.18
2023-03-06T07:21:05.986Z,-5.15
2023-03-06T07:23:53.050Z,-5.14
2023-03-06T07:26:39.971Z,-5.11
2023-03-06T07:29:26.879Z,-5.08
2023-03-06T07:32:13.779Z,-5.06
2023-03-06T07:35:19.006Z,-5.02
2023-03-06T07:38:06.906Z,-5.02
2023-03-06T07:40:53.949Z,-4.96
2023-03-06T07:43:40.976Z,-4.94
2023-03-06T07:46:29.176Z,-4.90
2023-03-06T07:49:16.169Z,-4.96
2023-03-06T07:52:04.046Z,-4.84
2023-03-06T07:54:50.861Z,-4.92
2023-03-06T07:57:37.819Z,-4.78
2023-03-06T08:00:26.603Z,-4.75
2023-03-06T08:03:13.611Z,-4.72
2023-03-06T08:06:01.005Z,-4.68
2023-03-06T08:08:47.880Z,-4.65
2023-03-06T08:11:37.806Z,-4.65
2023-03-06T08:14:24.919Z,-4.60
2023-03-06T08:17:11.954Z,-4.58
2023-03-06T08:19:58.926Z,-4.52
2023-03-06T08:22:45.782Z,-4.52
2023-03-06T08:25:35.926Z,-4.65
2023-03-06T08:28:23.736Z,-4.43
2023-03-06T08:31:10.631Z,-4.41
2023-03-06T08:33:58.396Z,-4.50
2023-03-06T08:36:45.840Z,-4.33
2023-03-06T08:39:33.069Z,-4.30
2023-03-06T08:42:19.950Z,-4.27
2023-03-06T08:45:06.941Z,-4.25
2023-03-06T08:47:55.004Z,-4.21
2023-03-06T08:50:41.999Z,-4.26
2023-03-06T08:53:42.047Z,-4.15
2023-03-06T08:56:42.542Z,-4.10
2023-03-06T08:59:31.370Z,-4.10
2023-03-06T09:02:18.278Z,-4.03
2023-03-06T09:05:05.181Z,-4.00
2023-03-06T09:07:52.058Z,-3.97
2023-03-06T09:10:42.398Z,-3.93
2023-03-06T09:13:29.472Z,-3.89
2023-03-06T09:16:16.588Z,-3.86
2023-03-06T09:19:03.611Z,-3.86
2023-03-06T09:21:50.551Z,-3.84
2023-03-06T09:24:37.372Z,-3.75
2023-03-06T09:27:24.376Z,-3.73
2023-03-06T09:30:11.471Z,-3.69
2023-03-06T09:32:58.436Z,-3.65
2023-03-06T09:35:45.395Z,-3.62
2023-03-06T09:38:32.423Z,-3.57
2023-03-06T09:41:19.331Z,-3.53
2023-03-06T09:44:12.384Z,-3.46
2023-03-06T09:47:17.213Z,-3.40
2023-03-06T09:50:27.730Z,-3.34
2023-03-06T09:53:39.806Z,-3.27
2023-03-06T09:56:39.644Z,-3.19
2023-03-06T09:59:39.910Z,-3.12
2023-03-06T10:02:40.300Z,-3.05
2023-03-06T10:05:33.730Z,-2.96
2023-03-06T10:08:26.026Z,-2.89
2023-03-06T10:11:25.811Z,-2.81
2023-03-06T10:14:49.541Z,-2.76
2023-03-06T10:17:42.497Z,-2.70
2023-03-06T10:20:36.865Z,-2.58
2023-03-06T10:23:36.176Z,-2.50
2023-03-06T10:26:36.047Z,-2.42
2023-03-06T10:29:32.158Z,-2.34
2023-03-06T10:32:46.115Z,-2.27
2023-03-06T10:35:39.397Z,-2.17
2023-03-06T10:38:41.189Z,-2.10
2023-03-06T10:41:30.979Z,-2.02
2023-03-06T10:44:21.064Z,-2.33
2023-03-06T10:47:11.081Z,-1.88
2023-03-06T10:49:58.507Z,-2.12
2023-03-06T10:52:49.671Z,-1.77
2023-03-06T10:55:47.822Z,-1.69
2023-03-06T10:58:59.150Z,-1.61
2023-03-06T11:01:46.074Z,-1.54
2023-03-06T11:04:51.347Z,-1.47
2023-03-06T11:07:43.962Z,-1.41
2023-03-06T11:10:39.266Z,-1.36
2023-03-06T11:13:41.675Z,-1.31
2023-03-06T11:16:46.532Z,-1.22
2023-03-06T11:19:44.094Z,-1.17
2023-03-06T11:22:38.930Z,-1.27
2023-03-06T11:25:30.282Z,-1.04
2023-03-06T11:28:23.468Z,-0.98
2023-03-06T11:31:16.760Z,-0.93
2023-03-06T11:34:15.220Z,-0.87
2023-03-06T11:37:17.240Z,-0.82
2023-03-06T11:40:12.888Z,-0.79
2023-03-06T11:43:29.799Z,-0.66
2023-03-06T11:46:23.418Z,-0.57
2023-03-06T11:49:34.053Z,-0.46
2023-03-06T11:52:35.133Z,-0.36
2023-03-06T11:55:22.450Z,-0.25
2023-03-06T11:58:46.951Z,-0.16
2023-03-06T12:01:59.016Z,-0.05
2023-03-06T12:04:55.515Z,0.04
2023-03-06T12:08:07.064Z,0.11
2023-03-06T12:11:10.211Z,0.18
2023-03-06T12:14:17.109Z,0.26
2023-03-06T12:17:09.932Z,0.31
2023-03-06T12:20:13.175Z,0.35
2023-03-06T12:23:15.261Z,0.40
2023-03-06T12:26:15.747Z,0.44
2023-03-06T12:29:23.433Z,0.49
2023-03-06T12:32:22.625Z,0.54
2023-03-06T12:35:31.606Z,0.60
2023-03-06T12:38:27.660Z,0.66
2023-03-06T12:41:36.307Z,0.70
2023-03-06T12:44:23.589Z,0.75
2023-03-06T12:47:31.653Z,0.81
2023-03-06T12:50:30.206Z,0.86
2023-03-06T12:53:27.351Z,0.78
2023-03-06T12:56:15.972Z,1.01
2023-03-06T12:59:11.145Z,1.06
2023-03-06T13:02:37.332Z,1.13
2023-03-06T13:05:47.265Z,1.12
2023-03-06T13:08:46.055Z,1.24
2023-03-06T13:11:54.222Z,1.30
2023-03-06T13:14:54.784Z,1.36
2023-03-06T13:17:45.152Z,1.41
2023-03-06T13:20:35.336Z,1.46
2023-03-06T13:23:50.540Z,1.44
2023-03-06T13:26:57.564Z,1.55
2023-03-06T13:29:56.732Z,1.60
2023-03-06T13:32:50.306Z,1.61
2023-03-06T13:36:19.288Z,1.59
2023-03-06T13:39:09.332Z,1.70
2023-03-06T13:42:20.009Z,1.73
2023-03-06T13:45:09.133Z,1.73
2023-03-06T13:48:24.924Z,1.49
2023-03-06T13:51:12.221Z,1.61
2023-03-06T13:54:29.965Z,1.75
2023-03-06T13:57:28.791Z,1.74
2023-03-06T14:00:36.126Z,1.75
2023-03-06T14:03:48.710Z,1.73
2023-03-06T14:06:54.145Z,1.73
2023-03-06T14:09:48.512Z,1.71
2023-03-06T14:13:21.795Z,1.68
2023-03-06T14:16:14.850Z,1.63
2023-03-06T14:19:06.190Z,1.58
2023-03-06T14:22:09.068Z,1.49
2023-03-06T14:25:03.556Z,1.45
2023-03-06T14:28:14.285Z,1.36
2023-03-06T14:31:10.303Z,1.31
2023-03-06T14:34:19.110Z,1.25
2023-03-06T14:37:11.366Z,1.11
2023-03-06T14:40:00.445Z,1.10
2023-03-06T14:42:49.577Z,1.02
2023-03-06T14:45:38.799Z,0.98
2023-03-06T14:48:26.381Z,0.90
2023-03-06T14:51:17.318Z,0.85
2023-03-06T14:54:06.688Z,0.80
2023-03-06T14:56:59.910Z,0.70
2023-03-06T14:59:50.718Z,0.66
2023-03-06T15:02:42.578Z,0.57
2023-03-06T15:05:50.391Z,0.53
2023-03-06T15:08:47.891Z,0.48
2023-03-06T15:11:34.860Z,0.43
2023-03-06T15:14:23.742Z,0.37
2023-03-06T15:17:11.015Z,0.09
2023-03-06T15:20:02.954Z,0.18
2023-03-06T15:22:58.481Z,0.16
2023-03-06T15:25:48.462Z,0.10
2023-03-06T15:28:50.262Z,0.04
2023-03-06T15:31:44.935Z,-0.03
2023-03-06T15:34:36.526Z,-0.09
2023-03-06T15:37:39.790Z,-0.16
2023-03-06T15:40:27.613Z,-0.22
2023-03-06T15:43:14.553Z,-0.27
2023-03-06T15:46:01.607Z,-0.54
2023-03-06T15:48:48.756Z,-0.37
2023-03-06T15:51:35.645Z,-0.40
2023-03-06T15:54:22.452Z,-0.46
2023-03-06T15:57:10.259Z,-0.61
2023-03-06T15:59:43.091Z,-0.56
2023-03-06T16:02:21.342Z,-0.59
2023-03-06T16:04:49.325Z,-0.62
2023-03-06T16:07:16.520Z,-0.75
2023-03-06T16:09:44.135Z,-0.77
2023-03-06T16:12:19.115Z,-0.75
2023-03-06T16:14:47.754Z,-0.80
2023-03-06T16:17:15.484Z,-0.83
2023-03-06T16:19:43.252Z,-0.88
2023-03-06T16:22:10.571Z,-1.15
2023-03-06T16:24:37.648Z,-1.03
2023-03-06T16:27:05.110Z,-1.03
2023-03-06T16:29:32.294Z,-1.09
2023-03-06T16:32:01.836Z,-1.14
2023-03-06T16:34:29.053Z,-1.22
2023-03-06T16:36:56.172Z,-1.27
2023-03-06T16:39:23.894Z,-1.33
2023-03-06T16:41:51.522Z,-1.40
2023-03-06T16:44:19.738Z,-1.45
2023-03-06T16:46:49.440Z,-1.51
2023-03-06T16:49:22.010Z,-1.57
2023-03-06T16:51:49.517Z,-1.64
2023-03-06T16:54:16.775Z,-1.73
2023-03-06T16:56:44.392Z,-1.77
2023-03-06T16:59:11.941Z,-1.83
2023-03-06T17:01:42.647Z,-1.89
2023-03-06T17:04:09.899Z,-1.94
2023-03-06T17:06:36.812Z,-2.04
2023-03-06T17:09:04.645Z,-2.11
2023-03-06T17:11:31.855Z,-2.13
2023-03-06T17:13:58.765Z,-2.18
2023-03-06T17:16:25.797Z,-2.24
2023-03-06T17:18:54.658Z,-2.33
2023-03-06T17:21:26.589Z,-2.36
2023-03-06T17:23:53.597Z,-2.45
2023-03-06T17:26:20.468Z,-2.49
2023-03-06T17:28:47.762Z,-2.54
2023-03-06T17:31:18.091Z,-2.60
2023-03-06T17:33:45.631Z,-2.66
2023-03-06T17:36:14.585Z,-2.72
2023-03-06T17:38:42.335Z,-3.06
2023-03-06T17:41:11.000Z,-2.85
2023-03-06T17:43:38.936Z,-2.91
2023-03-06T17:46:08.606Z,-2.98
2023-03-06T17:48:35.993Z,-3.05
2023-03-06T17:51:03.619Z,-3.08
2023-03-06T17:53:31.638Z,-3.14
2023-03-06T17:55:59.035Z,-3.25
2023-03-06T17:58:27.271Z,-3.32
2023-03-06T18:00:54.357Z,-3.48
2023-03-06T18:03:21.621Z,-3.63
2023-03-06T18:05:57.801Z,-3.53
2023-03-06T18:08:24.788Z,-3.48
2023-03-06T18:10:51.863Z,-3.75
2023-03-06T18:13:18.763Z,-3.58
2023-03-06T18:15:45.791Z,-3.64
2023-03-06T18:18:12.705Z,-3.74
2023-03-06T18:20:44.275Z,-3.99
2023-03-06T18:23:12.163Z,-3.84
2023-03-06T18:25:39.075Z,-3.91
2023-03-06T18:28:06.171Z,-4.02
2023-03-06T18:30:37.362Z,-4.05
2023-03-06T18:33:04.761Z,-4.11
2023-03-06T18:35:31.653Z,-4.17
2023-03-06T18:37:59.107Z,-4.47
2023-03-06T18:40:26.070Z,-4.30
2023-03-06T18:42:54.042Z,-4.38
2023-03-06T18:45:21.382Z,-4.85
2023-03-06T18:47:48.230Z,-4.50
2023-03-06T18:50:17.597Z,-4.51
2023-03-06T18:52:44.880Z,-4.58
2023-03-06T18:55:12.846Z,-4.65
2023-03-06T18:57:40.122Z,-4.69
2023-03-06T19:00:08.663Z,-4.78
2023-03-06T19:02:36.025Z,-4.79
2023-03-06T19:05:03.053Z,-4.84
2023-03-06T19:07:30.037Z,-5.36
2023-03-06T19:09:56.932Z,-4.96
2023-03-06T19:12:24.052Z,-5.01
2023-03-06T19:14:51.044Z,-5.06
2023-03-06T19:17:17.903Z,-5.12
2023-03-06T19:19:45.007Z,-5.30
2023-03-06T19:22:12.086Z,-5.25
2023-03-06T19:24:39.024Z,-5.28
2023-03-06T19:27:06.126Z,-5.33
2023-03-06T19:29:33.507Z,-5.39
2023-03-06T19:32:00.403Z,-5.45
2023-03-06T19:34:27.256Z,-5.51
2023-03-06T19:36:54.236Z,-5.60
2023-03-06T19:39:21.264Z,-5.62
2023-03-06T19:41:48.481Z,-5.67
2023-03-06T19:44:16.392Z,-5.73
2023-03-06T19:46:43.680Z,-5.81
2023-03-06T19:49:18.220Z,-5.86
2023-03-06T19:51:45.449Z,-6.21
2023-03-06T19:54:12.839Z,-5.97
2023-03-06T19:56:40.400Z,-6.32
2023-03-06T19:59:07.462Z,-6.06
2023-03-06T20:01:34.470Z,-6.13
2023-03-06T20:04:01.940Z,-6.25
2023-03-06T20:06:33.780Z,-6.32
2023-03-06T20:09:02.441Z,-6.29
2023-03-06T20:11:30.161Z,-6.35
2023-03-06T20:13:58.999Z,-6.40
2023-03-06T20:16:28.049Z,-6.44
2023-03-06T20:18:58.053Z,-6.50
2023-03-06T20:21:26.073Z,-6.56
2023-03-06T20:23:54.530Z,-6.62
2023-03-06T20:26:21.630Z,-6.72
2023-03-06T20:28:48.723Z,-6.74
2023-03-06T20:31:26.237Z,-6.78
2023-03-06T20:33:54.982Z,-7.31
2023-03-06T20:36:24.566Z,-6.92
2023-03-06T20:38:51.720Z,-6.93
2023-03-06T20:41:24.997Z,-6.98
2023-03-06T20:44:13.466Z,-7.07
2023-03-06T20:47:00.705Z,-7.09
2023-03-06T20:49:47.679Z,-7.11
2023-03-06T20:52:34.628Z,-7.15
2023-03-06T20:55:21.566Z,-7.18
2023-03-06T20:58:09.928Z,-7.22
2023-03-06T21:00:56.803Z,-7.25
2023-03-06T21:03:44.444Z,-7.28
2023-03-06T21:06:31.393Z,-7.32
2023-03-06T21:09:20.018Z,-7.34
2023-03-06T21:12:07.513Z,-7.35
2023-03-06T21:14:54.478Z,-7.40
2023-03-06T21:17:41.416Z,-7.44
2023-03-06T21:20:28.826Z,-7.43
2023-03-06T21:23:15.712Z,-7.96
2023-03-06T21:26:12.525Z,-7.48
2023-03-06T21:28:59.534Z,-7.70
2023-03-06T21:31:47.409Z,-7.51
2023-03-06T21:34:34.454Z,-7.53
2023-03-06T21:37:21.404Z,-7.54
2023-03-06T21:40:08.388Z,-7.63
2023-03-06T21:42:55.363Z,-7.58
2023-03-06T21:45:42.415Z,-7.58
2023-03-06T21:48:29.770Z,-7.61
2023-03-06T21:51:34.753Z,-7.60
2023-03-06T21:54:21.981Z,-8.04
2023-03-06T21:57:08.997Z,-7.62
2023-03-06T21:59:56.941Z,-7.62
2023-03-06T22:02:44.165Z,-7.61
2023-03-06T22:05:31.114Z,-7.61
2023-03-06T22:08:19.334Z,-7.61
2023-03-06T22:11:06.206Z,-7.61
2023-03-06T22:13:53.235Z,-7.78
2023-03-06T22:16:40.322Z,-7.60
2023-03-06T22:19:27.403Z,-7.59
2023-03-06T22:22:14.846Z,-7.61
2023-03-06T22:25:01.874Z,-7.58
2023-03-06T22:27:49.533Z,-7.81
2023-03-06T22:30:36.755Z,-7.59
2023-03-06T22:33:23.645Z,-7.63
2023-03-06T22:36:10.795Z,-7.54
2023-03-06T22:39:00.273Z,-7.61
2023-03-06T22:41:47.694Z,-7.53
2023-03-06T22:44:37.429Z,-7.52
2023-03-06T22:47:24.576Z,-7.52
2023-03-06T22:50:11.400Z,-7.52
2023-03-06T22:52:58.374Z,-7.51
2023-03-06T22:55:45.318Z,-7.50
2023-03-06T22:58:32.154Z,-7.49
2023-03-06T23:01:43.313Z,-7.49
2023-03-06T23:04:30.549Z,-7.50
2023-03-06T23:07:17.405Z,-7.48
2023-03-06T23:10:24.773Z,-7.49
2023-03-06T23:13:29.943Z,-7.50
2023-03-06T23:16:35.843Z,-7.51
2023-03-06T23:19:41.401Z,-7.53
2023-03-06T23:22:47.117Z,-7.54
2023-03-06T23:25:52.552Z,-7.64
2023-03-06T23:29:00.501Z,-7.62
2023-03-06T23:32:07.462Z,-7.60
2023-03-06T23:35:14.381Z,-7.62
2023-03-06T23:38:21.274Z,-7.62
2023-03-06T23:41:08.575Z,-7.62
2023-03-06T23:43:55.519Z,-7.65
2023-03-06T23:46:42.818Z,-7.65
2023-03-06T23:49:30.017Z,-7.72
2023-03-06T23:52:16.884Z,-7.81
2023-03-06T23:55:03.725Z,-7.67
2023-03-06T23:57:51.061Z,-7.81
